Terminal Aerodrome Forecast
Issued by NWS

Home | Current Version | Previous Version | Text Only | Print | Product List | Glossary On
Versions: 1 2 3 4 5 6 7 8 9 10 11 12 13 14 15 16 17
000
FTUS44 KCRP 312338
TAFALI
TAF
KALI 312338Z 0100/0124 18006KT P6SM VCTS FEW060CB BKN150
      TEMPO 0101/0103 VRB15G25KT 5SM TSRA BR BKN035CB OVC070
     FM010300 VRB05KT P6SM SCT060
     FM011000 VRB03KT 6SM BR FEW040 SCT250
     FM011430 03005KT P6SM FEW035 SCT150
     FM011900 08010KT P6SM FEW250=

USA.gov is the U.S. government's official web portal to all federal, state and local government web resources and services.